createdAt,value
2023-10-13T00:03:50.762Z,3.79
2023-10-13T00:07:53.073Z,3.79
2023-10-13T00:09:53.995Z,3.79
2023-10-13T00:13:56.840Z,3.79
2023-10-13T00:20:00.241Z,3.79
2023-10-13T00:26:05.031Z,3.78
2023-10-13T00:30:07.380Z,3.78
2023-10-13T00:36:11.438Z,3.78
2023-10-13T00:38:57.000Z,3.78
2023-10-13T00:40:58.665Z,3.78
2023-10-13T00:45:01.112Z,3.78
2023-10-13T00:47:02.464Z,3.78
2023-10-13T00:51:04.873Z,3.78
2023-10-13T00:57:08.500Z,3.78
2023-10-13T01:01:10.727Z,3.78
2023-10-13T01:03:11.666Z,3.78
2023-10-13T01:07:14.863Z,3.78
2023-10-13T01:13:18.756Z,3.77
2023-10-13T01:19:23.515Z,3.77
2023-10-13T01:23:33.824Z,3.77
2023-10-13T01:29:28.869Z,3.77
2023-10-13T01:33:32.111Z,3.77
2023-10-13T01:35:33.562Z,3.77
2023-10-13T01:39:36.818Z,3.77
2023-10-13T01:45:40.992Z,3.77
2023-10-13T01:51:45.840Z,3.77
2023-10-13T01:55:48.046Z,3.77
2023-10-13T02:01:51.827Z,3.77
2023-10-13T02:05:54.038Z,3.77
2023-10-13T02:07:55.112Z,3.77
2023-10-13T02:11:58.717Z,3.76
2023-10-13T02:16:01.326Z,3.76
2023-10-13T02:18:03.054Z,3.76
2023-10-13T02:22:06.481Z,3.77
2023-10-13T02:28:10.724Z,3.76
2023-10-13T02:34:15.330Z,3.76
2023-10-13T02:38:17.614Z,3.76
2023-10-13T02:44:20.951Z,3.76
2023-10-13T02:50:24.574Z,3.76
2023-10-13T02:54:27.939Z,3.75
2023-10-13T02:58:30.335Z,3.75
2023-10-13T03:00:31.338Z,3.75
2023-10-13T03:04:33.743Z,3.75
2023-10-13T03:08:36.287Z,3.75
2023-10-13T03:10:37.586Z,3.75
2023-10-13T03:14:40.100Z,3.75
2023-10-13T03:16:41.762Z,3.75
2023-10-13T03:20:43.852Z,3.75
2023-10-13T03:26:47.780Z,3.75
2023-10-13T03:32:52.520Z,3.74
2023-10-13T03:36:55.808Z,3.74
2023-10-13T03:43:00.182Z,3.74
2023-10-13T03:47:03.653Z,3.74
2023-10-13T03:49:04.752Z,3.74
2023-10-13T03:53:07.500Z,3.74
2023-10-13T03:57:10.332Z,3.74
2023-10-13T03:59:11.382Z,3.74
2023-10-13T04:03:14.201Z,3.74
2023-10-13T04:09:19.565Z,3.74
2023-10-13T04:15:24.139Z,3.74
2023-10-13T04:19:26.223Z,3.74
2023-10-13T04:25:30.473Z,3.73
2023-10-13T04:29:33.838Z,3.73
2023-10-13T04:31:36.655Z,3.73
2023-10-13T04:35:47.699Z,3.73
2023-10-13T04:39:41.151Z,3.73
2023-10-13T04:41:45.218Z,3.73
2023-10-13T04:45:44.611Z,3.73
2023-10-13T04:51:48.734Z,3.73
2023-10-13T04:57:52.041Z,3.72
2023-10-13T05:01:54.948Z,3.72
2023-10-13T05:07:58.864Z,3.72
2023-10-13T05:12:01.119Z,3.72
2023-10-13T05:14:02.189Z,3.72
2023-10-13T05:18:04.686Z,3.72
2023-10-13T05:24:09.000Z,3.72
2023-10-13T05:28:22.764Z,3.72
2023-10-13T05:32:15.044Z,3.72
2023-10-13T05:34:15.965Z,3.72
2023-10-13T05:38:18.144Z,3.71
2023-10-13T05:40:19.750Z,3.72
2023-10-13T05:44:21.828Z,3.71
2023-10-13T05:50:25.445Z,3.71
2023-10-13T05:56:29.779Z,3.71
2023-10-13T06:00:33.050Z,3.71
2023-10-13T06:06:36.949Z,3.71
2023-10-13T06:10:38.952Z,3.71
2023-10-13T06:12:39.901Z,3.7
2023-10-13T06:16:42.658Z,3.7
2023-10-13T06:20:45.243Z,3.7
2023-10-13T06:22:46.778Z,3.7
2023-10-13T06:26:49.418Z,3.7
2023-10-13T06:32:53.589Z,3.71
2023-10-13T06:38:58.365Z,3.72
2023-10-13T06:43:01.348Z,3.72
2023-10-13T06:49:05.450Z,3.73
2023-10-13T06:53:08.293Z,3.73
2023-10-13T06:55:09.335Z,3.74
2023-10-13T06:59:11.800Z,3.76
2023-10-13T07:03:14.917Z,3.77
2023-10-13T07:05:16.237Z,3.77
2023-10-13T07:09:18.943Z,3.78
2023-10-13T07:13:21.218Z,3.78
2023-10-13T07:15:22.588Z,3.78
2023-10-13T07:19:24.881Z,3.79
2023-10-13T07:21:25.732Z,3.79
2023-10-13T07:23:26.654Z,3.8
2023-10-13T07:26:12.050Z,3.8
2023-10-13T07:32:16.599Z,3.78
2023-10-13T07:36:18.479Z,3.81
2023-10-13T07:42:21.970Z,3.82
2023-10-13T07:46:24.356Z,3.83
2023-10-13T07:48:25.166Z,3.83
2023-10-13T07:52:30.541Z,3.83
2023-10-13T07:56:32.655Z,3.84
2023-10-13T07:58:33.588Z,3.84
2023-10-13T08:02:36.761Z,3.85
2023-10-13T08:08:40.385Z,3.86
2023-10-13T08:14:43.754Z,3.86
2023-10-13T08:18:47.410Z,3.86
2023-10-13T08:24:51.400Z,3.88
2023-10-13T08:28:57.804Z,3.88
2023-10-13T08:30:55.371Z,3.88
2023-10-13T08:34:58.265Z,3.89
2023-10-13T08:39:00.627Z,3.9
2023-10-13T08:41:01.819Z,3.89
2023-10-13T08:45:04.014Z,3.9
2023-10-13T08:49:07.741Z,3.9
2023-10-13T08:51:09.263Z,3.91
2023-10-13T08:55:10.830Z,3.92
2023-10-13T08:57:12.080Z,3.91
2023-10-13T08:59:13.819Z,3.92
2023-10-13T09:01:15.115Z,3.92
2023-10-13T09:07:19.931Z,3.93
2023-10-13T09:13:23.870Z,3.94
2023-10-13T09:17:26.530Z,3.94
2023-10-13T09:23:31.300Z,3.95
2023-10-13T09:27:33.691Z,3.96
2023-10-13T09:29:35.078Z,3.96
2023-10-13T09:33:38.212Z,3.96
2023-10-13T09:37:40.670Z,3.97
2023-10-13T09:39:41.517Z,3.97
2023-10-13T09:43:44.729Z,3.98
2023-10-13T09:49:49.243Z,3.99
2023-10-13T09:55:52.705Z,4
2023-10-13T09:59:54.792Z,4
2023-10-13T10:05:58.975Z,4.01
2023-10-13T10:10:00.664Z,4.02
2023-10-13T10:12:02.280Z,4.02
2023-10-13T10:16:04.562Z,4.03
2023-10-13T10:20:07.159Z,4.03
2023-10-13T10:22:08.351Z,4.04
2023-10-13T10:26:10.471Z,4.04
2023-10-13T10:32:14.046Z,4.05
2023-10-13T10:36:16.495Z,4.06
2023-10-13T10:38:17.807Z,4.06
2023-10-13T10:40:19.040Z,4.06
2023-10-13T10:42:19.803Z,4.06
2023-10-13T10:48:24.596Z,4.07
2023-10-13T10:54:28.538Z,4.08
2023-10-13T10:58:30.674Z,4.09
2023-10-13T11:04:35.491Z,4.09
2023-10-13T11:08:37.947Z,4.1
2023-10-13T11:12:41.284Z,4.11
2023-10-13T11:14:42.431Z,4.11
2023-10-13T11:18:45.301Z,4.12
2023-10-13T11:20:46.963Z,4.12
2023-10-13T11:22:47.836Z,4.12
2023-10-13T11:24:48.733Z,4.12
2023-10-13T11:30:53.535Z,4.13
2023-10-13T11:36:57.127Z,4.14
2023-10-13T11:41:00.314Z,4.14
2023-10-13T11:47:02.700Z,4.15
2023-10-13T11:51:04.307Z,4.16
2023-10-13T11:53:05.753Z,4.16
2023-10-13T11:57:08.095Z,4.16
2023-10-13T12:01:10.682Z,4.17
2023-10-13T12:03:12.370Z,4.17
2023-10-13T12:07:15.615Z,4.17
2023-10-13T12:13:18.717Z,4.18
2023-10-13T12:19:22.991Z,4.18
2023-10-13T12:23:25.622Z,4.18
2023-10-13T12:29:29.896Z,4.19
2023-10-13T12:33:33.412Z,4.19
2023-10-13T12:35:34.684Z,4.19
2023-10-13T12:39:37.171Z,4.19
2023-10-13T12:43:39.072Z,4.19
2023-10-13T12:45:40.017Z,4.19
2023-10-13T12:49:42.738Z,4.19
2023-10-13T12:53:44.868Z,4.2
2023-10-13T12:55:46.885Z,4.2
2023-10-13T12:59:49.013Z,4.19
2023-10-13T13:01:50.087Z,4.19
2023-10-13T13:05:53.273Z,4.2
2023-10-13T13:11:56.521Z,4.2
2023-10-13T13:18:01.288Z,4.2
2023-10-13T13:22:03.996Z,4.2
2023-10-13T13:28:07.190Z,4.2
2023-10-13T13:32:09.599Z,4.2
2023-10-13T13:34:11.076Z,4.2
2023-10-13T13:38:13.879Z,4.19
2023-10-13T13:42:17.263Z,4.18
2023-10-13T13:44:18.112Z,4.18
2023-10-13T13:48:21.580Z,4.18
2023-10-13T13:54:25.696Z,4.18
2023-10-13T14:00:29.086Z,4.17
2023-10-13T14:04:31.953Z,4.18
2023-10-13T14:09:18.527Z,4.17
2023-10-13T14:11:19.657Z,4.17
2023-10-13T14:15:21.641Z,4.17
2023-10-13T14:19:23.992Z,4.17
2023-10-13T14:21:25.086Z,4.17
2023-10-13T14:25:28.415Z,4.17
2023-10-13T14:29:31.233Z,4.17
2023-10-13T14:31:32.442Z,4.17
2023-10-13T14:35:34.905Z,4.17
2023-10-13T14:37:35.744Z,4.16
2023-10-13T14:39:37.138Z,4.17
2023-10-13T14:41:38.664Z,4.17
2023-10-13T14:47:43.399Z,4.17
2023-10-13T14:49:45.054Z,4.16
2023-10-13T14:53:47.011Z,4.16
2023-10-13T14:57:50.025Z,4.16
2023-10-13T15:03:54.431Z,4.16
2023-10-13T15:07:57.217Z,4.16
2023-10-13T15:09:58.696Z,4.16
2023-10-13T15:14:01.736Z,4.16
2023-10-13T15:18:04.559Z,4.16
2023-10-13T15:20:05.754Z,4.16
2023-10-13T15:24:11.595Z,4.16
2023-10-13T15:30:12.617Z,4.16
2023-10-13T15:36:17.025Z,4.15
2023-10-13T15:40:17.879Z,4.15
2023-10-13T15:42:19.597Z,4.15
2023-10-13T15:47:04.171Z,4.15
2023-10-13T15:50:24.315Z,4.15
2023-10-13T15:52:25.329Z,4.14
2023-10-13T15:56:28.073Z,4.14
2023-10-13T16:00:30.876Z,4.14
2023-10-13T16:02:32.232Z,4.14
2023-10-13T16:06:35.204Z,4.14
2023-10-13T16:12:38.936Z,4.14
2023-10-13T16:16:41.144Z,4.14
2023-10-13T16:18:42.424Z,4.14
2023-10-13T16:22:45.301Z,4.14
2023-10-13T16:28:49.449Z,4.14
2023-10-13T16:34:53.194Z,4.14
2023-10-13T16:38:55.914Z,4.13
2023-10-13T16:44:59.177Z,4.13
2023-10-13T16:49:09.447Z,4.13
2023-10-13T16:55:04.920Z,4.13
2023-10-13T16:59:07.280Z,4.13
2023-10-13T17:01:08.413Z,4.13
2023-10-13T17:05:11.038Z,4.13
2023-10-13T17:11:14.191Z,4.12
2023-10-13T17:17:17.126Z,4.12
2023-10-13T17:21:19.937Z,4.12
2023-10-13T17:27:23.893Z,4.12
2023-10-13T17:31:26.727Z,4.12
2023-10-13T17:33:28.313Z,4.12
2023-10-13T17:37:31.711Z,4.12
2023-10-13T17:41:34.720Z,4.12
2023-10-13T17:43:36.288Z,4.12
2023-10-13T17:47:39.367Z,4.11
2023-10-13T17:53:43.553Z,4.11
2023-10-13T17:59:46.775Z,4.11
2023-10-13T18:03:48.549Z,4.11
2023-10-13T18:09:52.342Z,4.11
2023-10-13T18:15:56.018Z,4.11
2023-10-13T18:19:59.353Z,4.1
2023-10-13T18:26:02.651Z,4.1
2023-10-13T18:30:05.947Z,4.1
2023-10-13T18:32:06.876Z,4.1
2023-10-13T18:36:10.117Z,4.1
2023-10-13T18:40:12.624Z,4.1
2023-10-13T18:42:13.888Z,4.1
2023-10-13T18:46:17.075Z,4.1
2023-10-13T18:52:21.238Z,4.1
2023-10-13T18:58:26.169Z,4.1
2023-10-13T19:02:27.942Z,4.1
2023-10-13T19:08:31.483Z,4.09
2023-10-13T19:12:33.452Z,4.09
2023-10-13T19:14:34.419Z,4.09
2023-10-13T19:18:37.314Z,4.09
2023-10-13T19:24:41.975Z,4.09
2023-10-13T19:30:46.291Z,4.09
2023-10-13T19:34:48.946Z,4.08
2023-10-13T19:40:53.397Z,4.08
2023-10-13T19:44:55.251Z,4.08
2023-10-13T19:46:56.750Z,4.08
2023-10-13T19:51:00.111Z,4.08
2023-10-13T19:55:03.096Z,4.08
2023-10-13T19:57:04.757Z,4.08
2023-10-13T20:01:07.465Z,4.08
2023-10-13T20:07:11.536Z,4.08
2023-10-13T20:13:15.802Z,4.08
2023-10-13T20:17:18.257Z,4.08
2023-10-13T20:23:21.860Z,4.08
2023-10-13T20:27:24.404Z,4.07
2023-10-13T20:29:25.367Z,4.07
2023-10-13T20:33:27.893Z,4.08
2023-10-13T20:37:30.371Z,4.07
2023-10-13T20:39:32.071Z,4.07
2023-10-13T20:43:34.103Z,4.07
2023-10-13T20:47:36.383Z,4.07
2023-10-13T20:49:37.732Z,4.07
2023-10-13T20:53:39.609Z,4.07
2023-10-13T21:00:26.821Z,4.06
2023-10-13T21:06:30.370Z,4.06
2023-10-13T21:10:33.246Z,4.06
2023-10-13T21:16:37.983Z,4.06
2023-10-13T21:20:40.583Z,4.06
2023-10-13T21:22:42.304Z,4.06
2023-10-13T21:26:44.824Z,4.06
2023-10-13T21:30:47.232Z,4.06
2023-10-13T21:32:48.322Z,4.05
2023-10-13T21:36:50.708Z,4.06
2023-10-13T21:42:54.737Z,4.06
2023-10-13T21:48:58.914Z,4.05
2023-10-13T21:53:01.679Z,4.05
2023-10-13T21:59:05.146Z,4.05
2023-10-13T22:03:07.883Z,4.05
2023-10-13T22:05:09.620Z,4.05
2023-10-13T22:09:12.302Z,4.05
2023-10-13T22:13:15.110Z,4.05
2023-10-13T22:15:16.301Z,4.04
2023-10-13T22:19:19.508Z,4.04
2023-10-13T22:23:21.883Z,4.04
2023-10-13T22:25:23.156Z,4.04
2023-10-13T22:29:25.435Z,4.04
2023-10-13T22:31:26.643Z,4.04
2023-10-13T22:35:29.921Z,4.04
2023-10-13T22:37:31.373Z,4.04
2023-10-13T22:39:33.034Z,4.04
2023-10-13T22:43:35.420Z,4.04
2023-10-13T22:47:38.029Z,4.04
2023-10-13T22:51:40.248Z,4.04
2023-10-13T22:57:44.275Z,4.04
2023-10-13T23:01:47.159Z,4.04
2023-10-13T23:03:48.104Z,4.04
2023-10-13T23:07:50.196Z,4.03
2023-10-13T23:11:52.539Z,4.03
2023-10-13T23:13:53.681Z,4.03
2023-10-13T23:17:56.905Z,4.03
2023-10-13T23:24:01.219Z,4.03
2023-10-13T23:30:04.842Z,4.03
2023-10-13T23:34:07.383Z,4.03
2023-10-13T23:40:11.366Z,4.03
2023-10-13T23:44:14.160Z,4.03
2023-10-13T23:46:15.126Z,4.02
2023-10-13T23:50:17.784Z,4.02
2023-10-13T23:54:20.817Z,4.02
2023-10-13T23:56:22.649Z,4.02
